Time,TemperatureF,DewpointF,PressureIn,WindDirection,WindDirectionDegrees,WindSpeedMPH,WindSpeedGustMPH,Humidity,HourlyPrecipIn,Conditions,Clouds,dailyrainin,SolarRadiationWatts/m^2,SoftwareType,DateUTC
2013-09-06 00:02:00,86.9,53.5,29.76,SSE,164,5.0,5.0,32,0.00,,,0.00,0,WeatherCatV1.11B39,2013-09-06 07:02:00,
2013-09-06 00:07:00,87.0,53.5,29.76,SSE,166,0.0,3.0,32,0.00,,,0.00,0,WeatherCatV1.11B39,2013-09-06 07:07:00,
2013-09-06 00:12:00,87.0,53.5,29.76,SSE,166,1.0,3.0,32,0.00,,,0.00,0,WeatherCatV1.11B39,2013-09-06 07:12:00,
2013-09-06 00:17:00,86.6,53.2,29.77,SSE,166,1.0,2.0,32,0.00,,,0.00,0,WeatherCatV1.11B39,2013-09-06 07:17:00,
2013-09-06 00:22:00,86.1,53.6,29.76,NE,43,1.0,3.0,33,0.00,,,0.00,0,WeatherCatV1.11B39,2013-09-06 07:22:00,
2013-09-06 00:27:00,85.7,53.2,29.77,NE,43,1.0,2.0,33,0.00,,,0.00,0,WeatherCatV1.11B39,2013-09-06 07:27:00,
2013-09-06 00:32:00,85.5,53.1,29.77,NE,43,0.0,1.0,33,0.00,,,0.00,0,WeatherCatV1.11B39,2013-09-06 07:32:00,
2013-09-06 00:37:00,85.1,53.5,29.76,NE,43,1.0,2.0,34,0.00,,,0.00,0,WeatherCatV1.11B39,2013-09-06 07:37:00,
2013-09-06 00:42:00,84.7,54.0,29.76,NE,43,1.0,1.0,35,0.00,,,0.00,0,WeatherCatV1.11B39,2013-09-06 07:42:00,
2013-09-06 00:47:00,84.6,53.9,29.76,NE,43,0.0,0.0,35,0.00,,,0.00,0,WeatherCatV1.11B39,2013-09-06 07:47:00,
2013-09-06 00:52:00,84.1,55.0,29.76,NE,43,0.0,0.0,37,0.00,,,0.00,0,WeatherCatV1.11B39,2013-09-06 07:52:00,
2013-09-06 00:57:00,83.4,54.4,29.76,NE,43,0.0,0.0,37,0.00,,,0.00,0,WeatherCatV1.11B39,2013-09-06 07:57:00,
2013-09-06 01:02:00,82.6,54.4,29.76,NE,43,0.0,0.0,38,0.00,,,0.00,0,WeatherCatV1.11B39,2013-09-06 08:02:00,
2013-09-06 01:07:00,81.8,55.1,29.76,NE,43,0.0,0.0,40,0.00,,,0.00,0,WeatherCatV1.11B39,2013-09-06 08:07:00,
2013-09-06 01:12:00,81.0,55.1,29.76,NE,43,1.0,2.0,41,0.00,,,0.00,0,WeatherCatV1.11B39,2013-09-06 08:12:00,
2013-09-06 01:17:00,80.7,54.8,29.76,NE,43,3.0,4.0,41,0.00,,,0.00,0,WeatherCatV1.11B39,2013-09-06 08:17:00,
2013-09-06 01:22:00,81.0,54.4,29.76,NE,43,1.0,2.0,40,0.00,,,0.00,0,WeatherCatV1.11B39,2013-09-06 08:22:00,
2013-09-06 01:27:00,81.0,55.1,29.76,NE,43,1.0,2.0,41,0.00,,,0.00,0,WeatherCatV1.11B39,2013-09-06 08:27:00,
2013-09-06 01:32:00,80.7,55.4,29.76,NE,43,0.0,2.0,42,0.00,,,0.00,0,WeatherCatV1.11B39,2013-09-06 08:32:00,
2013-09-06 01:37:00,80.4,55.2,29.76,NE,43,0.0,0.0,42,0.00,,,0.00,0,WeatherCatV1.11B39,2013-09-06 08:37:00,
2013-09-06 01:42:00,80.2,55.0,29.76,NE,43,1.0,1.0,42,0.00,,,0.00,0,WeatherCatV1.11B39,2013-09-06 08:42:00,
2013-09-06 01:47:00,80.2,55.6,29.76,NE,43,0.0,1.0,43,0.00,,,0.00,0,WeatherCatV1.11B39,2013-09-06 08:47:00,
2013-09-06 01:52:00,80.5,55.3,29.76,NE,43,0.0,0.0,42,0.00,,,0.00,0,WeatherCatV1.11B39,2013-09-06 08:52:00,
2013-09-06 01:57:00,80.2,55.6,29.76,NE,43,0.0,0.0,43,0.00,,,0.00,0,WeatherCatV1.11B39,2013-09-06 08:57:00,
2013-09-06 02:02:00,79.3,56.1,29.75,NE,43,0.0,0.0,45,0.00,,,0.00,0,WeatherCatV1.11B39,2013-09-06 09:02:00,
2013-09-06 02:07:00,79.0,55.8,29.75,NE,43,1.0,1.0,45,0.00,,,0.00,0,WeatherCatV1.11B39,2013-09-06 09:07:00,
2013-09-06 02:12:00,78.6,56.1,29.75,NE,43,1.0,2.0,46,0.00,,,0.00,0,WeatherCatV1.11B39,2013-09-06 09:12:00,
2013-09-06 02:17:00,79.0,55.8,29.75,NE,43,0.0,1.0,45,0.00,,,0.00,0,WeatherCatV1.11B39,2013-09-06 09:17:00,
2013-09-06 02:22:00,78.7,55.5,29.75,NE,43,0.0,0.0,45,0.00,,,0.00,0,WeatherCatV1.11B39,2013-09-06 09:22:00,
2013-09-06 02:27:00,78.3,55.8,29.75,NE,43,0.0,0.0,46,0.00,,,0.00,0,WeatherCatV1.11B39,2013-09-06 09:27:00,
2013-09-06 02:32:00,78.0,56.1,29.75,NE,43,0.0,1.0,47,0.00,,,0.00,0,WeatherCatV1.11B39,2013-09-06 09:32:00,
2013-09-06 02:37:00,77.6,56.3,29.75,NE,45,1.0,3.0,48,0.00,,,0.00,0,WeatherCatV1.11B39,2013-09-06 09:37:00,
2013-09-06 02:42:00,77.4,56.2,29.75,NE,45,0.0,0.0,48,0.00,,,0.00,0,WeatherCatV1.11B39,2013-09-06 09:42:00,
2013-09-06 02:47:00,77.2,56.5,29.75,NE,45,0.0,0.0,49,0.00,,,0.00,0,WeatherCatV1.11B39,2013-09-06 09:47:00,
2013-09-06 02:52:00,77.3,56.6,29.75,NE,45,0.0,1.0,49,0.00,,,0.00,0,WeatherCatV1.11B39,2013-09-06 09:52:00,
2013-09-06 02:57:00,77.1,57.0,29.75,NE,45,0.0,0.0,50,0.00,,,0.00,0,WeatherCatV1.11B39,2013-09-06 09:57:00,
2013-09-06 03:02:00,76.6,57.1,29.75,NE,45,0.0,0.0,51,0.00,,,0.00,0,WeatherCatV1.11B39,2013-09-06 10:02:00,
2013-09-06 03:07:00,76.2,56.7,29.75,NE,45,0.0,0.0,51,0.00,,,0.00,0,WeatherCatV1.11B39,2013-09-06 10:07:00,
2013-09-06 03:12:00,75.8,56.9,29.75,NE,45,0.0,0.0,52,0.00,,,0.00,0,WeatherCatV1.11B39,2013-09-06 10:12:00,
2013-09-06 03:17:00,75.8,57.4,29.75,NE,45,0.0,0.0,53,0.00,,,0.00,0,WeatherCatV1.11B39,2013-09-06 10:17:00,
2013-09-06 03:22:00,75.4,57.1,29.75,NE,45,0.0,0.0,53,0.00,,,0.00,0,WeatherCatV1.11B39,2013-09-06 10:22:00,
2013-09-06 03:27:00,75.0,57.7,29.74,NE,45,0.0,1.0,55,0.00,,,0.00,0,WeatherCatV1.11B39,2013-09-06 10:27:00,
2013-09-06 03:32:00,74.8,57.0,29.74,NE,45,1.0,2.0,54,0.00,,,0.00,0,WeatherCatV1.11B39,2013-09-06 10:32:00,
2013-09-06 03:37:00,74.8,57.5,29.74,NE,45,0.0,1.0,55,0.00,,,0.00,0,WeatherCatV1.11B39,2013-09-06 10:37:00,
2013-09-06 03:42:00,75.0,57.7,29.74,NE,45,0.0,0.0,55,0.00,,,0.00,0,WeatherCatV1.11B39,2013-09-06 10:42:00,
2013-09-06 03:47:00,74.9,58.1,29.74,NE,45,2.0,2.0,56,0.00,,,0.00,0,WeatherCatV1.11B39,2013-09-06 10:47:00,
2013-09-06 03:52:00,74.8,57.5,29.74,NE,45,1.0,2.0,55,0.00,,,0.00,0,WeatherCatV1.11B39,2013-09-06 10:52:00,
2013-09-06 03:57:00,74.9,57.6,29.74,NE,45,0.0,2.0,55,0.00,,,0.00,0,WeatherCatV1.11B39,2013-09-06 10:57:00,
2013-09-06 04:02:00,74.9,57.1,29.74,NE,45,1.0,1.0,54,0.00,,,0.00,0,WeatherCatV1.11B39,2013-09-06 11:02:00,
2013-09-06 04:07:00,74.8,57.0,29.74,NE,45,0.0,0.0,54,0.00,,,0.00,0,WeatherCatV1.11B39,2013-09-06 11:07:00,
2013-09-06 04:12:00,74.6,56.8,29.74,NE,45,1.0,2.0,54,0.00,,,0.00,0,WeatherCatV1.11B39,2013-09-06 11:12:00,
2013-09-06 04:17:00,74.2,57.5,29.74,NE,45,0.0,0.0,56,0.00,,,0.00,0,WeatherCatV1.11B39,2013-09-06 11:17:00,
2013-09-06 04:22:00,73.5,57.8,29.74,NE,45,0.0,1.0,58,0.00,,,0.00,0,WeatherCatV1.11B39,2013-09-06 11:22:00,
2013-09-06 04:27:00,73.5,57.3,29.74,NE,45,0.0,0.0,57,0.00,,,0.00,0,WeatherCatV1.11B39,2013-09-06 11:27:00,
2013-09-06 04:32:00,73.7,57.5,29.74,NE,45,0.0,1.0,57,0.00,,,0.00,0,WeatherCatV1.11B39,2013-09-06 11:32:00,
2013-09-06 04:37:00,73.7,57.5,29.74,NE,45,0.0,0.0,57,0.00,,,0.00,0,WeatherCatV1.11B39,2013-09-06 11:37:00,
2013-09-06 04:42:00,73.5,57.3,29.75,NE,45,0.0,0.0,57,0.00,,,0.00,0,WeatherCatV1.11B39,2013-09-06 11:42:00,
2013-09-06 04:47:00,72.9,57.2,29.75,NE,45,1.0,2.0,58,0.00,,,0.00,0,WeatherCatV1.11B39,2013-09-06 11:47:00,
2013-09-06 04:52:00,72.6,57.4,29.75,NE,45,0.0,1.0,59,0.00,,,0.00,0,WeatherCatV1.11B39,2013-09-06 11:52:00,
2013-09-06 04:57:00,72.8,57.6,29.75,NE,45,1.0,1.0,59,0.00,,,0.00,0,WeatherCatV1.11B39,2013-09-06 11:57:00,
2013-09-06 05:02:00,72.7,57.1,29.75,NE,45,0.0,0.0,58,0.00,,,0.00,0,WeatherCatV1.11B39,2013-09-06 12:02:00,
2013-09-06 05:07:00,72.4,57.2,29.75,NE,45,1.0,1.0,59,0.00,,,0.00,0,WeatherCatV1.11B39,2013-09-06 12:07:00,
2013-09-06 05:12:00,72.6,57.0,29.75,NE,45,0.0,0.0,58,0.00,,,0.00,0,WeatherCatV1.11B39,2013-09-06 12:12:00,
2013-09-06 05:17:00,72.9,56.3,29.75,NE,45,0.0,2.0,56,0.00,,,0.00,0,WeatherCatV1.11B39,2013-09-06 12:17:00,
2013-09-06 05:22:00,73.0,56.9,29.75,NE,45,0.0,0.0,57,0.00,,,0.00,0,WeatherCatV1.11B39,2013-09-06 12:22:00,
2013-09-06 05:27:00,72.8,56.7,29.75,NE,45,0.0,1.0,57,0.00,,,0.00,0,WeatherCatV1.11B39,2013-09-06 12:27:00,
2013-09-06 05:32:00,72.3,57.2,29.75,NE,45,0.0,1.0,59,0.00,,,0.00,0,WeatherCatV1.11B39,2013-09-06 12:32:00,
2013-09-06 05:37:00,72.1,57.0,29.75,NE,45,0.0,0.0,59,0.00,,,0.00,0,WeatherCatV1.11B39,2013-09-06 12:37:00,
2013-09-06 05:42:00,71.8,57.2,29.75,NE,45,0.0,0.0,60,0.00,,,0.00,0,WeatherCatV1.11B39,2013-09-06 12:42:00,
2013-09-06 05:47:00,71.6,57.4,29.75,NE,45,1.0,1.0,61,0.00,,,0.00,0,WeatherCatV1.11B39,2013-09-06 12:47:00,
2013-09-06 05:52:00,71.7,57.1,29.76,NE,45,2.0,2.0,60,0.00,,,0.00,0,WeatherCatV1.11B39,2013-09-06 12:52:00,
2013-09-06 05:57:00,71.2,57.0,29.76,NE,45,1.0,1.0,61,0.00,,,0.00,0,WeatherCatV1.11B39,2013-09-06 12:57:00,
2013-09-06 06:02:00,71.4,57.2,29.76,NE,45,0.0,0.0,61,0.00,,,0.00,5,WeatherCatV1.11B39,2013-09-06 13:02:00,
2013-09-06 06:07:00,71.5,57.3,29.76,East,84,3.0,3.0,61,0.00,,,0.00,7,WeatherCatV1.11B39,2013-09-06 13:07:00,
2013-09-06 06:12:00,71.4,57.7,29.76,SE,146,1.0,4.0,62,0.00,,,0.00,11,WeatherCatV1.11B39,2013-09-06 13:12:00,
2013-09-06 06:17:00,71.5,58.2,29.77,SSE,147,0.0,1.0,63,0.00,,,0.00,12,WeatherCatV1.11B39,2013-09-06 13:17:00,
2013-09-06 06:22:00,71.3,58.0,29.77,SSE,147,0.0,0.0,63,0.00,,,0.00,16,WeatherCatV1.11B39,2013-09-06 13:22:00,
2013-09-06 06:27:00,70.7,58.3,29.77,SE,146,2.0,2.0,65,0.00,,,0.00,19,WeatherCatV1.11B39,2013-09-06 13:27:00,
2013-09-06 06:32:00,70.6,58.2,29.77,SE,133,2.0,3.0,65,0.00,,,0.00,25,WeatherCatV1.11B39,2013-09-06 13:32:00,
2013-09-06 06:37:00,71.1,58.3,29.78,ESE,122,1.0,2.0,64,0.00,,,0.00,37,WeatherCatV1.11B39,2013-09-06 13:37:00,
2013-09-06 06:42:00,71.7,58.4,29.78,ESE,119,1.0,2.0,63,0.00,,,0.00,49,WeatherCatV1.11B39,2013-09-06 13:42:00,
2013-09-06 06:47:00,73.1,57.9,29.78,ESE,119,1.0,2.0,59,0.00,,,0.00,70,WeatherCatV1.11B39,2013-09-06 13:47:00,
2013-09-06 06:52:00,74.1,58.8,29.78,ESE,119,1.0,2.0,59,0.00,,,0.00,91,WeatherCatV1.11B39,2013-09-06 13:52:00,
2013-09-06 06:57:00,74.9,58.6,29.78,ESE,119,0.0,1.0,57,0.00,,,0.00,49,WeatherCatV1.11B39,2013-09-06 13:57:00,
2013-09-06 07:02:00,75.3,59.5,29.78,ESE,119,0.0,0.0,58,0.00,,,0.00,53,WeatherCatV1.11B39,2013-09-06 14:02:00,
2013-09-06 07:07:00,74.8,60.0,29.78,ESE,119,0.0,1.0,60,0.00,,,0.00,49,WeatherCatV1.11B39,2013-09-06 14:07:00,
2013-09-06 07:12:00,74.6,60.2,29.78,ESE,119,0.0,0.0,61,0.00,,,0.00,63,WeatherCatV1.11B39,2013-09-06 14:12:00,
2013-09-06 07:17:00,75.1,60.2,29.78,ESE,119,0.0,1.0,60,0.00,,,0.00,200,WeatherCatV1.11B39,2013-09-06 14:17:00,
2013-09-06 07:22:00,77.0,60.6,29.78,ESE,119,0.0,1.0,57,0.00,,,0.00,225,WeatherCatV1.11B39,2013-09-06 14:22:00,
2013-09-06 07:27:00,78.8,60.7,29.79,ESE,119,0.0,0.0,54,0.00,,,0.00,246,WeatherCatV1.11B39,2013-09-06 14:27:00,
2013-09-06 07:32:00,80.1,61.4,29.79,ESE,119,0.0,1.0,53,0.00,,,0.00,239,WeatherCatV1.11B39,2013-09-06 14:32:00,
2013-09-06 07:37:00,79.8,61.7,29.79,ESE,119,0.0,3.0,54,0.00,,,0.00,163,WeatherCatV1.11B39,2013-09-06 14:37:00,
2013-09-06 07:42:00,79.3,60.7,29.79,ESE,121,0.0,2.0,53,0.00,,,0.00,100,WeatherCatV1.11B39,2013-09-06 14:42:00,
2013-09-06 07:47:00,79.0,60.9,29.79,ESE,121,0.0,3.0,54,0.00,,,0.00,227,WeatherCatV1.11B39,2013-09-06 14:47:00,
2013-09-06 07:52:00,79.4,59.1,29.79,ESE,121,0.0,1.0,50,0.00,,,0.00,120,WeatherCatV1.11B39,2013-09-06 14:52:00,
2013-09-06 07:57:00,80.0,59.1,29.79,ESE,121,0.0,1.0,49,0.00,,,0.00,113,WeatherCatV1.11B39,2013-09-06 14:57:00,
2013-09-06 08:02:00,80.6,58.5,29.79,ESE,121,1.0,1.0,47,0.00,,,0.00,359,WeatherCatV1.11B39,2013-09-06 15:02:00,
2013-09-06 08:07:00,81.6,58.2,29.79,ESE,121,0.0,2.0,45,0.00,,,0.00,371,WeatherCatV1.11B39,2013-09-06 15:07:00,
2013-09-06 08:12:00,82.6,59.1,29.79,ESE,121,0.0,1.0,45,0.00,,,0.00,376,WeatherCatV1.11B39,2013-09-06 15:12:00,
2013-09-06 08:17:00,82.6,58.4,29.80,ESE,121,2.0,2.0,44,0.00,,,0.00,355,WeatherCatV1.11B39,2013-09-06 15:17:00,
2013-09-06 08:22:00,83.2,59.0,29.80,ESE,121,0.0,1.0,44,0.00,,,0.00,410,WeatherCatV1.11B39,2013-09-06 15:22:00,
2013-09-06 08:27:00,84.0,59.1,29.79,ESE,121,0.0,0.0,43,0.00,,,0.00,424,WeatherCatV1.11B39,2013-09-06 15:27:00,
2013-09-06 08:32:00,84.6,58.9,29.79,ESE,121,0.0,0.0,42,0.00,,,0.00,438,WeatherCatV1.11B39,2013-09-06 15:32:00,
2013-09-06 08:37:00,85.3,58.2,29.79,ESE,121,0.0,2.0,40,0.00,,,0.00,459,WeatherCatV1.11B39,2013-09-06 15:37:00,
2013-09-06 08:42:00,86.2,58.3,29.80,ESE,122,2.0,2.0,39,0.00,,,0.00,469,WeatherCatV1.11B39,2013-09-06 15:42:00,
2013-09-06 08:47:00,86.8,58.8,29.80,ESE,122,0.0,1.0,39,0.00,,,0.00,487,WeatherCatV1.11B39,2013-09-06 15:47:00,
2013-09-06 08:52:00,87.3,57.8,29.80,ESE,120,0.0,2.0,37,0.00,,,0.00,504,WeatherCatV1.11B39,2013-09-06 15:52:00,
2013-09-06 08:57:00,87.8,57.5,29.80,ESE,120,1.0,3.0,36,0.00,,,0.00,519,WeatherCatV1.11B39,2013-09-06 15:57:00,
2013-09-06 09:02:00,88.6,58.2,29.80,ESE,120,0.0,2.0,36,0.00,,,0.00,534,WeatherCatV1.11B39,2013-09-06 16:02:00,
2013-09-06 09:07:00,89.2,59.5,29.80,ESE,120,0.0,2.0,37,0.00,,,0.00,552,WeatherCatV1.11B39,2013-09-06 16:07:00,
2013-09-06 09:12:00,89.6,59.1,29.80,ESE,120,1.0,3.0,36,0.00,,,0.00,584,WeatherCatV1.11B39,2013-09-06 16:12:00,
2013-09-06 09:17:00,89.5,58.2,29.80,ESE,120,1.0,1.0,35,0.00,,,0.00,302,WeatherCatV1.11B39,2013-09-06 16:17:00,
2013-09-06 09:22:00,89.7,58.4,29.80,ESE,120,0.0,2.0,35,0.00,,,0.00,297,WeatherCatV1.11B39,2013-09-06 16:22:00,
2013-09-06 09:27:00,89.6,58.3,29.79,ESE,114,2.0,4.0,35,0.00,,,0.00,174,WeatherCatV1.11B39,2013-09-06 16:27:00,
2013-09-06 09:32:00,89.4,58.1,29.79,ESE,114,0.0,0.0,35,0.00,,,0.00,162,WeatherCatV1.11B39,2013-09-06 16:32:00,
2013-09-06 09:37:00,89.3,58.0,29.79,ESE,114,0.0,0.0,35,0.00,,,0.00,225,WeatherCatV1.11B39,2013-09-06 16:37:00,
2013-09-06 09:42:00,89.5,58.2,29.79,ESE,114,0.0,0.0,35,0.00,,,0.00,373,WeatherCatV1.11B39,2013-09-06 16:42:00,
2013-09-06 09:47:00,90.0,57.0,29.79,ESE,114,0.0,0.0,33,0.00,,,0.00,221,WeatherCatV1.11B39,2013-09-06 16:47:00,
2013-09-06 09:52:00,90.1,57.9,29.79,ESE,114,0.0,0.0,34,0.00,,,0.00,218,WeatherCatV1.11B39,2013-09-06 16:52:00,
2013-09-06 09:57:00,90.5,58.3,29.79,ESE,114,1.0,1.0,34,0.00,,,0.00,265,WeatherCatV1.11B39,2013-09-06 16:57:00,
2013-09-06 10:02:00,90.9,56.0,29.79,ESE,114,0.0,1.0,31,0.00,,,0.00,287,WeatherCatV1.11B39,2013-09-06 17:02:00,
2013-09-06 10:07:00,91.3,56.4,29.79,ESE,114,0.0,0.0,31,0.00,,,0.00,292,WeatherCatV1.11B39,2013-09-06 17:07:00,
2013-09-06 10:12:00,92.0,56.1,29.79,ESE,114,0.0,1.0,30,0.00,,,0.00,311,WeatherCatV1.11B39,2013-09-06 17:12:00,
2013-09-06 10:17:00,92.6,55.7,29.79,ENE,76,3.0,5.0,29,0.00,,,0.00,316,WeatherCatV1.11B39,2013-09-06 17:17:00,
2013-09-06 10:22:00,93.2,55.2,29.79,East,88,5.0,5.0,28,0.00,,,0.00,339,WeatherCatV1.11B39,2013-09-06 17:22:00,
2013-09-06 10:27:00,93.7,55.6,29.78,ESE,110,0.0,4.0,28,0.00,,,0.00,369,WeatherCatV1.11B39,2013-09-06 17:27:00,
2013-09-06 10:32:00,94.5,56.3,29.78,ESE,117,2.0,4.0,28,0.00,,,0.00,457,WeatherCatV1.11B39,2013-09-06 17:32:00,
2013-09-06 10:37:00,94.9,56.6,29.78,ENE,59,3.0,4.0,28,0.00,,,0.00,406,WeatherCatV1.11B39,2013-09-06 17:37:00,
2013-09-06 10:42:00,94.5,55.3,29.78,East,93,2.0,4.0,27,0.00,,,0.00,390,WeatherCatV1.11B39,2013-09-06 17:42:00,
2013-09-06 10:47:00,94.1,56.0,29.78,ESE,104,4.0,7.0,28,0.00,,,0.00,399,WeatherCatV1.11B39,2013-09-06 17:47:00,
2013-09-06 10:52:00,94.4,56.2,29.78,SSE,162,3.0,5.0,28,0.00,,,0.00,401,WeatherCatV1.11B39,2013-09-06 17:52:00,
2013-09-06 10:57:00,94.6,56.4,29.78,SSE,149,2.0,3.0,28,0.00,,,0.00,399,WeatherCatV1.11B39,2013-09-06 17:57:00,
2013-09-06 11:02:00,95.1,55.8,29.78,ESE,116,1.0,4.0,27,0.00,,,0.00,512,WeatherCatV1.11B39,2013-09-06 18:02:00,
2013-09-06 11:07:00,95.4,56.1,29.78,SE,135,1.0,4.0,27,0.00,,,0.00,483,WeatherCatV1.11B39,2013-09-06 18:07:00,
2013-09-06 11:12:00,96.2,55.7,29.78,SSE,152,2.0,2.0,26,0.00,,,0.00,515,WeatherCatV1.11B39,2013-09-06 18:12:00,
2013-09-06 11:17:00,97.5,56.8,29.78,South,183,3.0,7.0,26,0.00,,,0.00,513,WeatherCatV1.11B39,2013-09-06 18:17:00,
2013-09-06 11:22:00,96.5,55.9,29.77,South,182,3.0,3.0,26,0.00,,,0.00,540,WeatherCatV1.11B39,2013-09-06 18:22:00,
2013-09-06 11:27:00,97.0,56.4,29.77,South,180,3.0,7.0,26,0.00,,,0.00,434,WeatherCatV1.11B39,2013-09-06 18:27:00,
2013-09-06 11:32:00,98.0,57.2,29.77,SW,222,5.0,7.0,26,0.00,,,0.00,1025,WeatherCatV1.11B39,2013-09-06 18:32:00,
2013-09-06 11:37:00,98.8,57.9,29.77,SW,230,1.0,6.0,26,0.00,,,0.00,1049,WeatherCatV1.11B39,2013-09-06 18:37:00,
2013-09-06 11:42:00,99.7,57.5,29.77,South,183,2.0,6.0,25,0.00,,,0.00,1000,WeatherCatV1.11B39,2013-09-06 18:42:00,
2013-09-06 11:47:00,100.9,57.4,29.77,SSW,203,2.0,4.0,24,0.00,,,0.00,684,WeatherCatV1.11B39,2013-09-06 18:47:00,
2013-09-06 11:52:00,100.5,57.1,29.77,SSW,199,5.0,5.0,24,0.00,,,0.00,1092,WeatherCatV1.11B39,2013-09-06 18:52:00,
2013-09-06 11:57:00,99.0,57.0,29.77,SSE,161,4.0,6.0,25,0.00,,,0.00,325,WeatherCatV1.11B39,2013-09-06 18:57:00,
2013-09-06 12:02:00,97.0,56.4,29.76,SSE,168,3.0,5.0,26,0.00,,,0.00,455,WeatherCatV1.11B39,2013-09-06 19:02:00,
2013-09-06 12:07:00,97.3,56.6,29.76,SSE,168,1.0,2.0,26,0.00,,,0.00,455,WeatherCatV1.11B39,2013-09-06 19:07:00,
2013-09-06 12:12:00,100.2,58.0,29.76,South,188,7.0,8.0,25,0.00,,,0.00,1111,WeatherCatV1.11B39,2013-09-06 19:12:00,
2013-09-06 12:17:00,100.8,57.3,29.76,SSW,210,5.0,9.0,24,0.00,,,0.00,1153,WeatherCatV1.11B39,2013-09-06 19:17:00,
2013-09-06 12:22:00,100.4,57.0,29.75,SSW,201,7.0,11.0,24,0.00,,,0.00,939,WeatherCatV1.11B39,2013-09-06 19:22:00,
2013-09-06 12:27:00,100.2,56.8,29.75,WSW,252,4.0,8.0,24,0.00,,,0.00,729,WeatherCatV1.11B39,2013-09-06 19:27:00,
2013-09-06 12:32:00,100.6,57.2,29.75,WSW,247,4.0,7.0,24,0.00,,,0.00,729,WeatherCatV1.11B39,2013-09-06 19:32:00,
2013-09-06 12:37:00,100.6,56.0,29.75,SW,220,4.0,7.0,23,0.00,,,0.00,1114,WeatherCatV1.11B39,2013-09-06 19:37:00,
2013-09-06 12:42:00,101.0,57.5,29.74,West,262,6.0,9.0,24,0.00,,,0.00,1114,WeatherCatV1.11B39,2013-09-06 19:42:00,
2013-09-06 12:47:00,99.9,56.6,29.74,WSW,237,4.0,10.0,24,0.00,,,0.00,540,WeatherCatV1.11B39,2013-09-06 19:47:00,
2013-09-06 12:52:00,100.3,56.9,29.74,SSW,209,9.0,9.0,24,0.00,,,0.00,1088,WeatherCatV1.11B39,2013-09-06 19:52:00,
2013-09-06 12:57:00,101.7,56.9,29.74,WSW,257,6.0,8.0,23,0.00,,,0.00,1099,WeatherCatV1.11B39,2013-09-06 19:57:00,
2013-09-06 13:02:00,102.4,57.5,29.73,SW,227,7.0,9.0,23,0.00,,,0.00,1037,WeatherCatV1.11B39,2013-09-06 20:02:00,
2013-09-06 13:07:00,102.4,57.5,29.73,SSE,162,4.0,8.0,23,0.00,,,0.00,1023,WeatherCatV1.11B39,2013-09-06 20:07:00,
2013-09-06 13:12:00,102.1,56.0,29.73,SE,129,3.0,10.0,22,0.00,,,0.00,984,WeatherCatV1.11B39,2013-09-06 20:12:00,
2013-09-06 13:17:00,100.4,55.8,29.72,South,175,0.0,2.0,23,0.00,,,0.00,990,WeatherCatV1.11B39,2013-09-06 20:17:00,
2013-09-06 13:22:00,99.7,56.4,29.72,SSE,161,6.0,6.0,24,0.00,,,0.00,972,WeatherCatV1.11B39,2013-09-06 20:22:00,
2013-09-06 13:27:00,101.8,54.5,29.71,South,180,8.0,12.0,21,0.00,,,0.00,953,WeatherCatV1.11B39,2013-09-06 20:27:00,
2013-09-06 13:32:00,101.5,55.5,29.71,SSE,157,5.0,8.0,22,0.00,,,0.00,928,WeatherCatV1.11B39,2013-09-06 20:32:00,
2013-09-06 13:37:00,101.5,55.5,29.71,ESE,123,5.0,7.0,22,0.00,,,0.00,954,WeatherCatV1.11B39,2013-09-06 20:37:00,
2013-09-06 13:42:00,102.2,54.8,29.71,SSE,168,3.0,8.0,21,0.00,,,0.00,1072,WeatherCatV1.11B39,2013-09-06 20:42:00,
2013-09-06 13:47:00,103.0,55.4,29.71,SE,138,7.0,10.0,21,0.00,,,0.00,1144,WeatherCatV1.11B39,2013-09-06 20:47:00,
2013-09-06 13:52:00,101.6,54.3,29.71,SSW,197,5.0,7.0,21,0.00,,,0.00,360,WeatherCatV1.11B39,2013-09-06 20:52:00,
2013-09-06 13:57:00,99.9,55.4,29.71,North,3,2.0,7.0,23,0.00,,,0.00,380,WeatherCatV1.11B39,2013-09-06 20:57:00,
2013-09-06 14:02:00,97.5,58.8,29.71,North,7,6.0,10.0,28,0.00,,,0.00,403,WeatherCatV1.11B39,2013-09-06 21:02:00,
2013-09-06 14:07:00,98.7,58.8,29.70,NNE,22,12.0,18.0,27,0.00,,,0.00,944,WeatherCatV1.11B39,2013-09-06 21:07:00,
2013-09-06 14:12:00,95.7,58.3,29.70,NNE,26,13.0,17.0,29,0.00,,,0.00,197,WeatherCatV1.11B39,2013-09-06 21:12:00,
2013-09-06 14:17:00,94.5,57.3,29.70,NNE,21,7.0,13.0,29,0.00,,,0.00,132,WeatherCatV1.11B39,2013-09-06 21:17:00,
2013-09-06 14:22:00,93.8,57.6,29.71,ESE,112,4.0,8.0,30,0.00,,,0.00,91,WeatherCatV1.11B39,2013-09-06 21:22:00,
2013-09-06 14:27:00,90.6,62.2,29.73,SSW,194,22.0,27.0,39,0.00,,,0.00,62,WeatherCatV1.11B39,2013-09-06 21:27:00,
2013-09-06 14:32:00,83.4,63.3,29.74,South,186,8.0,16.0,51,0.00,,,0.00,47,WeatherCatV1.11B39,2013-09-06 21:32:00,
2013-09-06 14:37:00,79.7,62.6,29.73,SW,226,7.0,17.0,56,0.00,,,0.00,44,WeatherCatV1.11B39,2013-09-06 21:37:00,
2013-09-06 14:42:00,79.9,61.2,29.72,SW,220,10.0,15.0,53,0.00,,,0.00,42,WeatherCatV1.11B39,2013-09-06 21:42:00,
2013-09-06 14:47:00,78.9,62.8,29.72,WNW,301,2.0,6.0,58,0.00,,,0.00,40,WeatherCatV1.11B39,2013-09-06 21:47:00,
2013-09-06 14:52:00,77.6,64.4,29.72,NNE,12,4.0,9.0,64,0.00,,,0.00,42,WeatherCatV1.11B39,2013-09-06 21:52:00,
2013-09-06 14:57:00,80.1,63.5,29.72,NNE,24,1.0,5.0,57,0.00,,,0.00,53,WeatherCatV1.11B39,2013-09-06 21:57:00,
2013-09-06 15:02:00,81.9,64.1,29.71,North,10,2.0,6.0,55,0.00,,,0.00,69,WeatherCatV1.11B39,2013-09-06 22:02:00,
2013-09-06 15:07:00,83.3,62.7,29.71,North,353,3.0,5.0,50,0.00,,,0.00,84,WeatherCatV1.11B39,2013-09-06 22:07:00,
2013-09-06 15:12:00,84.7,61.6,29.71,North,1,3.0,4.0,46,0.00,,,0.00,104,WeatherCatV1.11B39,2013-09-06 22:12:00,
2013-09-06 15:17:00,86.1,61.6,29.71,North,2,1.0,5.0,44,0.00,,,0.00,120,WeatherCatV1.11B39,2013-09-06 22:17:00,
2013-09-06 15:22:00,87.2,60.6,29.70,NNE,26,2.0,5.0,41,0.00,,,0.00,128,WeatherCatV1.11B39,2013-09-06 22:22:00,
2013-09-06 15:27:00,88.0,59.2,29.70,North,359,4.0,5.0,38,0.00,,,0.00,141,WeatherCatV1.11B39,2013-09-06 22:27:00,
2013-09-06 15:32:00,88.6,59.0,29.69,North,5,7.0,9.0,37,0.00,,,0.00,134,WeatherCatV1.11B39,2013-09-06 22:32:00,
2013-09-06 15:37:00,88.8,59.9,29.69,NNE,16,6.0,10.0,38,0.00,,,0.00,135,WeatherCatV1.11B39,2013-09-06 22:37:00,
2013-09-06 15:42:00,89.0,59.3,29.69,NNW,336,5.0,9.0,37,0.00,,,0.00,206,WeatherCatV1.11B39,2013-09-06 22:42:00,
2013-09-06 15:47:00,89.9,60.1,29.68,North,6,5.0,8.0,37,0.00,,,0.00,207,WeatherCatV1.11B39,2013-09-06 22:47:00,
2013-09-06 15:52:00,90.4,59.0,29.68,NNE,16,0.0,5.0,35,0.00,,,0.00,128,WeatherCatV1.11B39,2013-09-06 22:52:00,
2013-09-06 15:57:00,92.8,58.6,29.68,NNE,20,4.0,5.0,32,0.00,,,0.00,533,WeatherCatV1.11B39,2013-09-06 22:57:00,
2013-09-06 16:02:00,93.8,59.4,29.68,NW,313,1.0,4.0,32,0.00,,,0.00,527,WeatherCatV1.11B39,2013-09-06 23:02:00,
2013-09-06 16:07:00,93.3,62.3,29.68,South,177,1.0,3.0,36,0.00,,,0.00,534,WeatherCatV1.11B39,2013-09-06 23:07:00,
2013-09-06 16:12:00,93.3,59.0,29.68,South,177,0.0,2.0,32,0.00,,,0.00,512,WeatherCatV1.11B39,2013-09-06 23:12:00,
2013-09-06 16:17:00,91.4,63.6,29.68,South,172,4.0,6.0,40,0.00,,,0.01,118,WeatherCatV1.11B39,2013-09-06 23:17:00,
2013-09-06 16:22:00,89.9,65.7,29.68,South,171,4.0,5.0,45,0.00,,,0.01,455,WeatherCatV1.11B39,2013-09-06 23:22:00,
2013-09-06 16:27:00,90.2,64.6,29.67,South,184,2.0,6.0,43,0.00,,,0.01,427,WeatherCatV1.11B39,2013-09-06 23:27:00,
2013-09-06 16:32:00,91.1,66.1,29.67,South,182,0.0,1.0,44,0.00,,,0.01,411,WeatherCatV1.11B39,2013-09-06 23:32:00,
2013-09-06 16:37:00,92.3,64.4,29.67,South,182,0.0,3.0,40,0.00,,,0.01,394,WeatherCatV1.11B39,2013-09-06 23:37:00,
2013-09-06 16:42:00,92.6,64.7,29.67,South,182,3.0,3.0,40,0.00,,,0.01,387,WeatherCatV1.11B39,2013-09-06 23:42:00,
2013-09-06 16:47:00,92.9,63.5,29.67,South,182,2.0,3.0,38,0.00,,,0.01,366,WeatherCatV1.11B39,2013-09-06 23:47:00,
2013-09-06 16:52:00,93.1,63.7,29.66,South,182,0.0,3.0,38,0.00,,,0.01,343,WeatherCatV1.11B39,2013-09-06 23:52:00,
2013-09-06 16:57:00,94.1,60.5,29.66,SSW,203,1.0,4.0,33,0.00,,,0.01,345,WeatherCatV1.11B39,2013-09-06 23:57:00,
2013-09-06 17:02:00,94.9,59.5,29.66,SSW,203,2.0,2.0,31,0.00,,,0.01,353,WeatherCatV1.11B39,2013-09-07 00:02:00,
2013-09-06 17:07:00,94.4,63.3,29.67,SSE,147,6.0,11.0,36,0.00,,,0.01,348,WeatherCatV1.11B39,2013-09-07 00:07:00,
2013-09-06 17:12:00,93.0,62.8,29.67,SSE,161,2.0,7.0,37,0.00,,,0.01,348,WeatherCatV1.11B39,2013-09-07 00:12:00,
2013-09-06 17:17:00,93.5,61.7,29.66,SE,140,3.0,6.0,35,0.00,,,0.01,323,WeatherCatV1.11B39,2013-09-07 00:17:00,
2013-09-06 17:22:00,93.8,61.9,29.66,SW,220,4.0,7.0,35,0.00,,,0.01,123,WeatherCatV1.11B39,2013-09-07 00:22:00,
2013-09-06 17:27:00,93.3,59.0,29.66,South,174,4.0,8.0,32,0.00,,,0.01,118,WeatherCatV1.11B39,2013-09-07 00:27:00,
2013-09-06 17:32:00,92.8,59.4,29.67,SW,221,7.0,8.0,33,0.00,,,0.01,109,WeatherCatV1.11B39,2013-09-07 00:32:00,
2013-09-06 17:37:00,92.7,58.5,29.67,SSW,209,1.0,4.0,32,0.00,,,0.01,216,WeatherCatV1.11B39,2013-09-07 00:37:00,
2013-09-06 17:42:00,92.9,59.5,29.68,SSE,155,2.0,5.0,33,0.00,,,0.01,207,WeatherCatV1.11B39,2013-09-07 00:42:00,
2013-09-06 17:47:00,92.6,59.2,29.68,SE,142,5.0,6.0,33,0.00,,,0.01,163,WeatherCatV1.11B39,2013-09-07 00:47:00,
2013-09-06 17:52:00,91.9,60.3,29.69,SE,127,4.0,7.0,35,0.00,,,0.01,130,WeatherCatV1.11B39,2013-09-07 00:52:00,
2013-09-06 17:57:00,91.3,60.6,29.69,SE,133,4.0,8.0,36,0.00,,,0.01,62,WeatherCatV1.11B39,2013-09-07 00:57:00,
2013-09-06 18:02:00,90.7,59.2,29.70,SSE,157,0.0,1.0,35,0.00,,,0.01,46,WeatherCatV1.11B39,2013-09-07 01:02:00,
2013-09-06 18:07:00,90.2,59.6,29.69,SSE,158,0.0,1.0,36,0.00,,,0.01,40,WeatherCatV1.11B39,2013-09-07 01:07:00,
2013-09-06 18:12:00,89.9,59.3,29.69,NNE,18,3.0,5.0,36,0.00,,,0.01,40,WeatherCatV1.11B39,2013-09-07 01:12:00,
2013-09-06 18:17:00,89.8,59.2,29.70,NNE,22,2.0,5.0,36,0.00,,,0.01,32,WeatherCatV1.11B39,2013-09-07 01:17:00,
2013-09-06 18:22:00,89.8,59.2,29.70,NNE,22,0.0,4.0,36,0.00,,,0.01,14,WeatherCatV1.11B39,2013-09-07 01:22:00,
2013-09-06 18:27:00,89.6,59.1,29.70,NNE,22,2.0,3.0,36,0.00,,,0.01,5,WeatherCatV1.11B39,2013-09-07 01:27:00,
2013-09-06 18:32:00,89.4,59.7,29.70,NNE,22,0.0,1.0,37,0.00,,,0.01,0,WeatherCatV1.11B39,2013-09-07 01:32:00,
2013-09-06 18:37:00,89.4,59.7,29.70,NNE,22,0.0,0.0,37,0.00,,,0.01,0,WeatherCatV1.11B39,2013-09-07 01:37:00,
2013-09-06 18:42:00,89.0,59.3,29.69,NNE,22,0.0,0.0,37,0.00,,,0.01,0,WeatherCatV1.11B39,2013-09-07 01:42:00,
2013-09-06 18:47:00,88.3,59.4,29.69,NNE,22,0.0,0.0,38,0.00,,,0.01,0,WeatherCatV1.11B39,2013-09-07 01:47:00,
2013-09-06 18:52:00,88.2,60.1,29.69,NNE,22,0.0,0.0,39,0.00,,,0.01,0,WeatherCatV1.11B39,2013-09-07 01:52:00,
2013-09-06 18:57:00,87.8,59.7,29.70,NNE,24,2.0,3.0,39,0.00,,,0.01,0,WeatherCatV1.11B39,2013-09-07 01:57:00,
2013-09-06 19:02:00,87.7,59.6,29.70,NNE,24,0.0,1.0,39,0.00,,,0.01,0,WeatherCatV1.11B39,2013-09-07 02:02:00,
2013-09-06 19:07:00,87.4,60.1,29.70,WNW,299,0.0,3.0,40,0.00,,,0.01,0,WeatherCatV1.11B39,2013-09-07 02:07:00,
2013-09-06 19:12:00,87.1,60.5,29.71,WNW,300,0.0,1.0,41,0.00,,,0.01,0,WeatherCatV1.11B39,2013-09-07 02:12:00,
2013-09-06 19:17:00,86.9,60.3,29.71,West,261,0.0,1.0,41,0.00,,,0.01,0,WeatherCatV1.11B39,2013-09-07 02:17:00,
2013-09-06 19:22:00,86.7,60.8,29.71,SW,222,2.0,2.0,42,0.00,,,0.01,0,WeatherCatV1.11B39,2013-09-07 02:22:00,
2013-09-06 19:27:00,86.5,60.0,29.71,SSW,209,0.0,2.0,41,0.00,,,0.01,0,WeatherCatV1.11B39,2013-09-07 02:27:00,
2013-09-06 19:32:00,86.2,60.4,29.71,SSW,209,1.0,1.0,42,0.00,,,0.01,0,WeatherCatV1.11B39,2013-09-07 02:32:00,
2013-09-06 19:37:00,85.9,60.1,29.71,SSW,209,0.0,1.0,42,0.00,,,0.01,0,WeatherCatV1.11B39,2013-09-07 02:37:00,
2013-09-06 19:42:00,85.7,59.3,29.71,SSW,209,0.0,0.0,41,0.00,,,0.01,0,WeatherCatV1.11B39,2013-09-07 02:42:00,
2013-09-06 19:47:00,85.2,59.5,29.71,SSW,209,0.0,0.0,42,0.00,,,0.01,0,WeatherCatV1.11B39,2013-09-07 02:47:00,
2013-09-06 19:52:00,84.6,60.2,29.72,SSW,209,0.0,1.0,44,0.00,,,0.01,0,WeatherCatV1.11B39,2013-09-07 02:52:00,
2013-09-06 19:57:00,84.3,60.0,29.72,SSW,209,0.0,0.0,44,0.00,,,0.01,0,WeatherCatV1.11B39,2013-09-07 02:57:00,
2013-09-06 20:02:00,83.7,60.1,29.72,SSW,209,0.0,0.0,45,0.00,,,0.01,0,WeatherCatV1.11B39,2013-09-07 03:02:00,
2013-09-06 20:07:00,83.5,59.9,29.73,SSW,209,0.0,0.0,45,0.00,,,0.01,0,WeatherCatV1.11B39,2013-09-07 03:07:00,
2013-09-06 20:12:00,83.4,60.4,29.74,SSW,209,1.0,1.0,46,0.00,,,0.01,0,WeatherCatV1.11B39,2013-09-07 03:12:00,
2013-09-06 20:17:00,83.6,61.2,29.75,South,188,2.0,11.0,47,0.00,,,0.01,0,WeatherCatV1.11B39,2013-09-07 03:17:00,
2013-09-06 20:22:00,83.8,61.4,29.75,WSW,252,4.0,7.0,47,0.00,,,0.01,0,WeatherCatV1.11B39,2013-09-07 03:22:00,
2013-09-06 20:27:00,83.6,61.2,29.76,SW,223,2.0,4.0,47,0.00,,,0.01,0,WeatherCatV1.11B39,2013-09-07 03:27:00,
2013-09-06 20:32:00,83.2,61.4,29.77,South,190,1.0,3.0,48,0.00,,,0.01,0,WeatherCatV1.11B39,2013-09-07 03:32:00,
2013-09-06 20:37:00,82.8,61.7,29.78,South,190,0.0,0.0,49,0.00,,,0.01,0,WeatherCatV1.11B39,2013-09-07 03:37:00,
2013-09-06 20:42:00,82.5,61.4,29.78,South,190,0.0,1.0,49,0.00,,,0.01,0,WeatherCatV1.11B39,2013-09-07 03:42:00,
2013-09-06 20:47:00,82.6,61.5,29.78,South,184,1.0,2.0,49,0.00,,,0.01,0,WeatherCatV1.11B39,2013-09-07 03:47:00,
2013-09-06 20:52:00,82.5,61.4,29.79,South,184,0.0,1.0,49,0.00,,,0.01,0,WeatherCatV1.11B39,2013-09-07 03:52:00,
2013-09-06 20:57:00,82.3,61.8,29.79,South,182,1.0,2.0,50,0.00,,,0.01,0,WeatherCatV1.11B39,2013-09-07 03:57:00,
2013-09-06 21:01:00,82.2,61.7,29.79,South,182,1.0,2.0,50,0.00,,,0.01,0,WeatherCatV1.11B39,2013-09-07 04:01:00,
2013-09-06 21:03:00,82.2,61.7,29.79,South,182,1.0,1.0,50,0.00,,,0.01,0,WeatherCatV1.11B39,2013-09-07 04:03:00,
2013-09-06 21:08:00,82.1,61.6,29.80,ESE,120,2.0,6.0,50,0.00,,,0.01,0,WeatherCatV1.11B39,2013-09-07 04:08:00,
2013-09-06 21:13:00,82.0,61.5,29.80,ESE,120,1.0,4.0,50,0.00,,,0.01,0,WeatherCatV1.11B39,2013-09-07 04:13:00,
2013-09-06 21:18:00,82.0,61.5,29.80,SE,124,2.0,5.0,50,0.00,,,0.01,0,WeatherCatV1.11B39,2013-09-07 04:18:00,
2013-09-06 21:23:00,81.9,60.8,29.81,SE,130,2.0,3.0,49,0.00,,,0.01,0,WeatherCatV1.11B39,2013-09-07 04:23:00,
2013-09-06 21:28:00,81.7,60.7,29.81,SE,132,0.0,5.0,49,0.00,,,0.01,0,WeatherCatV1.11B39,2013-09-07 04:28:00,
2013-09-06 21:33:00,81.5,61.0,29.80,SE,126,1.0,1.0,50,0.00,,,0.01,0,WeatherCatV1.11B39,2013-09-07 04:33:00,
2013-09-06 21:38:00,81.2,60.8,29.80,SE,126,1.0,2.0,50,0.00,,,0.01,0,WeatherCatV1.11B39,2013-09-07 04:38:00,
2013-09-06 21:43:00,81.1,60.7,29.80,SE,126,2.0,2.0,50,0.00,,,0.01,0,WeatherCatV1.11B39,2013-09-07 04:43:00,
2013-09-06 21:48:00,80.9,61.0,29.81,SE,126,2.0,3.0,51,0.00,,,0.01,0,WeatherCatV1.11B39,2013-09-07 04:48:00,
2013-09-06 21:53:00,80.6,61.3,29.80,SE,126,0.0,3.0,52,0.00,,,0.01,0,WeatherCatV1.11B39,2013-09-07 04:53:00,
2013-09-06 21:58:00,80.4,61.1,29.80,SE,124,2.0,3.0,52,0.00,,,0.01,0,WeatherCatV1.11B39,2013-09-07 04:58:00,
2013-09-06 22:03:00,80.3,61.0,29.79,SE,124,0.0,0.0,52,0.00,,,0.01,0,WeatherCatV1.11B39,2013-09-07 05:03:00,
2013-09-06 22:08:00,80.1,60.9,29.79,SE,124,2.0,2.0,52,0.00,,,0.01,0,WeatherCatV1.11B39,2013-09-07 05:08:00,
2013-09-06 22:13:00,79.9,60.7,29.79,ESE,103,1.0,4.0,52,0.00,,,0.01,0,WeatherCatV1.11B39,2013-09-07 05:13:00,
2013-09-06 22:18:00,79.9,60.7,29.78,East,101,1.0,3.0,52,0.00,,,0.01,0,WeatherCatV1.11B39,2013-09-07 05:18:00,
2013-09-06 22:23:00,79.9,60.7,29.78,East,93,2.0,4.0,52,0.00,,,0.01,0,WeatherCatV1.11B39,2013-09-07 05:23:00,
2013-09-06 22:28:00,80.1,60.3,29.78,East,82,0.0,1.0,51,0.00,,,0.01,0,WeatherCatV1.11B39,2013-09-07 05:28:00,
2013-09-06 22:33:00,80.1,60.3,29.78,East,82,0.0,1.0,51,0.00,,,0.01,0,WeatherCatV1.11B39,2013-09-07 05:33:00,
2013-09-06 22:38:00,79.9,60.7,29.78,East,82,0.0,1.0,52,0.00,,,0.01,0,WeatherCatV1.11B39,2013-09-07 05:38:00,
2013-09-06 22:43:00,79.7,61.0,29.79,SSE,159,0.0,5.0,53,0.00,,,0.01,0,WeatherCatV1.11B39,2013-09-07 05:43:00,
2013-09-06 22:48:00,79.5,60.8,29.80,SSE,162,3.0,5.0,53,0.00,,,0.01,0,WeatherCatV1.11B39,2013-09-07 05:48:00,
2013-09-06 22:53:00,79.6,60.9,29.81,SSE,155,2.0,7.0,53,0.00,,,0.01,0,WeatherCatV1.11B39,2013-09-07 05:53:00,
2013-09-06 22:58:00,79.6,60.9,29.82,SSE,155,1.0,3.0,53,0.00,,,0.01,0,WeatherCatV1.11B39,2013-09-07 05:58:00,
2013-09-06 23:03:00,79.5,61.4,29.82,SSE,159,2.0,5.0,54,0.00,,,0.01,0,WeatherCatV1.11B39,2013-09-07 06:03:00,
2013-09-06 23:08:00,79.3,61.2,29.82,South,178,1.0,1.0,54,0.00,,,0.01,0,WeatherCatV1.11B39,2013-09-07 06:08:00,
2013-09-06 23:13:00,79.1,61.5,29.83,South,178,0.0,1.0,55,0.00,,,0.01,0,WeatherCatV1.11B39,2013-09-07 06:13:00,
2013-09-06 23:18:00,79.1,61.0,29.83,South,178,0.0,1.0,54,0.00,,,0.01,0,WeatherCatV1.11B39,2013-09-07 06:18:00,
2013-09-06 23:23:00,79.1,61.0,29.83,East,84,2.0,2.0,54,0.00,,,0.01,0,WeatherCatV1.11B39,2013-09-07 06:23:00,
2013-09-06 23:28:00,79.2,61.1,29.84,East,84,2.0,6.0,54,0.00,,,0.01,0,WeatherCatV1.11B39,2013-09-07 06:28:00,
2013-09-06 23:33:00,79.2,62.1,29.84,ENE,76,2.0,6.0,56,0.00,,,0.01,0,WeatherCatV1.11B39,2013-09-07 06:33:00,
2013-09-06 23:38:00,76.7,67.0,29.83,NE,46,4.0,4.0,72,0.00,,,0.01,0,WeatherCatV1.11B39,2013-09-07 06:38:00,
2013-09-06 23:43:00,74.4,66.7,29.83,NE,45,4.0,7.0,77,0.00,,,0.01,0,WeatherCatV1.11B39,2013-09-07 06:43:00,
2013-09-06 23:48:00,73.1,65.8,29.83,NE,34,3.0,6.0,78,0.00,,,0.01,0,WeatherCatV1.11B39,2013-09-07 06:48:00,
2013-09-06 23:53:00,72.6,66.4,29.83,NNE,25,1.0,2.0,81,0.00,,,0.01,0,WeatherCatV1.11B39,2013-09-07 06:53:00,
2013-09-06 23:58:00,72.2,66.7,29.83,NNE,26,0.0,1.0,83,0.00,,,0.01,0,WeatherCatV1.11B39,2013-09-07 06:58:00,